Temp Hi Low Out Dew Wind Wind Wind Hi Hi Wind Heat THW THSW Rain Solar Solar Hi Solar UV UV Hi Heat Cool In In In In In In Air Wind Wind ISS Arc.
Date Time Out Temp Temp Hum Pt. Speed Dir Run Speed Dir Chill Index Index Index Bar Rain Rate Rad. Energy Rad. Index Dose UV D-D D-D Temp Hum Dew Heat EMC Density ET Samp Tx Recept Int.
------------------------------------------------------------------------------------------------------------------------------------------------------------------------------------------------------------------------------------------------------------------------
5/09/26 12:10a 51.9 52.1 51.9 87 48.2 1.0 ENE 0.17 4.0 ENE 51.9 52.0 52.0 48.8 30.192 0.00 0.00 0 0.00 0 0.0 0.00 0.0 0.091 0.000 73.2 49 52.9 72.7 9.05 .0741 0.000 204 7 100.0 10
5/09/26 12:20a 52.0 52.0 51.9 88 48.6 1.0 ENE 0.17 4.0 ENE 52.0 52.1 52.1 48.9 30.190 0.00 0.00 0 0.00 0 0.0 0.00 0.0 0.090 0.000 73.1 49 52.8 72.5 9.05 .0742 0.000 201 7 100.0 10
5/09/26 12:30a 51.8 52.0 51.8 88 48.4 1.0 ENE 0.17 2.0 ENE 51.8 51.9 51.9 48.7 30.188 0.00 0.00 0 0.00 0 0.0 0.00 0.0 0.092 0.000 73.1 49 52.8 72.5 9.05 .0742 0.000 203 7 100.0 10
5/09/26 12:40a 51.8 51.9 51.7 88 48.4 1.0 ENE 0.17 4.0 ENE 51.8 51.9 51.9 48.7 30.187 0.00 0.00 0 0.00 0 0.0 0.00 0.0 0.092 0.000 73.0 49 52.7 72.4 9.05 .0742 0.000 201 7 100.0 10
5/09/26 12:50a 51.7 51.9 51.7 88 48.3 1.0 ENE 0.17 3.0 ENE 51.7 51.8 51.8 48.6 30.184 0.00 0.00 0 0.00 0 0.0 0.00 0.0 0.092 0.000 73.0 49 52.7 72.4 9.05 .0742 0.000 204 7 100.0 10
5/09/26 1:00a 51.7 51.9 51.7 88 48.3 2.0 E 0.33 5.0 ENE 51.7 51.8 51.8 48.6 30.182 0.00 0.00 0 0.00 0 0.0 0.00 0.0 0.092 0.000 72.9 49 52.6 72.3 9.05 .0742 0.000 203 7 100.0 10
5/09/26 1:10a 51.8 51.9 51.7 89 48.7 3.0 ENE 0.50 7.0 E 51.7 52.0 51.9 48.7 30.179 0.00 0.00 0 0.00 0 0.0 0.00 0.0 0.092 0.000 72.9 49 52.6 72.3 9.05 .0742 0.000 203 7 100.0 10
5/09/26 1:20a 51.8 51.9 51.7 89 48.7 3.0 E 0.50 8.0 ESE 51.7 52.0 51.9 48.7 30.179 0.00 0.00 0 0.00 0 0.0 0.00 0.0 0.092 0.000 72.8 49 52.5 72.1 9.05 .0742 0.000 204 7 100.0 10
5/09/26 1:30a 51.6 51.8 51.6 89 48.5 3.0 ENE 0.50 8.0 ESE 51.5 51.8 51.7 48.5 30.177 0.00 0.00 0 0.00 0 0.0 0.00 0.0 0.093 0.000 72.7 49 52.4 72.0 9.05 .0742 0.000 202 7 100.0 10
5/09/26 1:40a 51.6 51.7 51.5 89 48.5 2.0 NE 0.33 6.0 NE 51.6 51.8 51.8 48.6 30.171 0.00 0.00 0 0.00 0 0.0 0.00 0.0 0.093 0.000 72.7 49 52.4 72.0 9.05 .0742 0.000 200 7 100.0 10
5/09/26 1:50a 51.4 51.6 51.3 89 48.3 4.0 ENE 0.67 7.0 ENE 50.5 51.6 50.7 47.5 30.168 0.00 0.00 0 0.00 0 0.0 0.00 0.0 0.094 0.000 72.6 49 52.3 71.9 9.05 .0742 0.000 202 7 100.0 10
5/09/26 2:00a 51.3 51.4 51.3 89 48.2 3.0 ENE 0.50 7.0 ENE 51.1 51.5 51.3 48.1 30.162 0.00 0.00 0 0.00 0 0.0 0.00 0.0 0.095 0.000 72.6 49 52.3 71.9 9.05 .0742 0.000 205 7 100.0 10
5/09/26 2:10a 51.4 51.4 51.3 90 48.6 4.0 ENE 0.67 9.0 E 50.5 51.6 50.7 47.5 30.162 0.00 0.00 0 0.00 0 0.0 0.00 0.0 0.094 0.000 72.5 49 52.2 71.7 9.05 .0742 0.000 203 7 100.0 10
5/09/26 2:20a 51.4 51.4 51.3 90 48.6 4.0 ENE 0.67 9.0 E 50.5 51.6 50.7 47.5 30.160 0.00 0.00 0 0.00 0 0.0 0.00 0.0 0.094 0.000 72.5 49 52.2 71.7 9.05 .0742 0.000 200 7 100.0 10
5/09/26 2:30a 51.6 51.7 51.4 90 48.8 3.0 E 0.50 8.0 ENE 51.5 51.8 51.7 48.5 30.167 0.00 0.00 0 0.00 0 0.0 0.00 0.0 0.093 0.000 72.5 49 52.2 71.7 9.05 .0742 0.000 202 7 100.0 10
5/09/26 2:40a 51.5 51.7 51.5 90 48.7 2.0 NNE 0.33 4.0 NE 51.5 51.7 51.7 48.5 30.171 0.00 0.00 0 0.00 0 0.0 0.00 0.0 0.094 0.000 72.4 49 52.2 71.6 9.05 .0742 0.000 204 7 100.0 10
5/09/26 2:50a 51.2 51.5 51.2 90 48.4 1.0 NNE 0.17 3.0 NNE 51.2 51.4 51.4 48.2 30.165 0.00 0.00 0 0.00 0 0.0 0.00 0.0 0.096 0.000 72.3 49 52.1 71.4 9.05 .0742 0.000 203 7 100.0 10
5/09/26 3:00a 51.4 51.4 51.1 90 48.6 0.0 NNE 0.00 2.0 NNE 51.4 51.6 51.6 48.4 30.162 0.00 0.00 0 0.00 0 0.0 0.00 0.0 0.094 0.000 72.3 49 52.1 71.4 9.05 .0742 0.000 202 7 100.0 10
5/09/26 3:10a 51.5 51.6 51.3 90 48.7 0.0 NNE 0.00 2.0 NNE 51.5 51.7 51.7 48.5 30.161 0.00 0.00 0 0.00 0 0.0 0.00 0.0 0.094 0.000 72.3 49 52.1 71.4 9.05 .0742 0.000 203 7 100.0 10
5/09/26 3:20a 51.4 51.6 51.4 90 48.6 0.0 NNE 0.00 4.0 E 51.4 51.6 51.6 48.4 30.152 0.00 0.00 0 0.00 0 0.0 0.00 0.0 0.094 0.000 72.2 49 52.0 71.3 9.05 .0742 0.000 205 7 100.0 10
5/09/26 3:30a 51.1 51.3 51.1 90 48.3 3.0 E 0.50 7.0 E 50.9 51.3 51.1 47.9 30.148 0.00 0.00 0 0.00 0 0.0 0.00 0.0 0.097 0.000 72.2 49 52.0 71.3 9.05 .0742 0.000 201 7 100.0 10
5/09/26 3:40a 51.1 51.2 51.0 90 48.3 3.0 E 0.50 6.0 E 50.9 51.3 51.1 47.9 30.147 0.00 0.00 0 0.00 0 0.0 0.00 0.0 0.097 0.000 72.1 49 51.9 71.1 9.05 .0742 0.000 201 7 100.0 10
5/09/26 3:50a 51.4 51.4 51.1 91 48.9 3.0 E 0.50 7.0 ENE 51.2 51.6 51.4 48.2 30.152 0.00 0.00 0 0.00 0 0.0 0.00 0.0 0.094 0.000 72.0 49 51.8 71.0 9.05 .0743 0.000 204 7 100.0 10
5/09/26 4:00a 51.5 51.5 51.3 90 48.7 2.0 ENE 0.33 4.0 ENE 51.5 51.7 51.7 48.5 30.155 0.00 0.00 0 0.00 0 0.0 0.00 0.0 0.094 0.000 72.0 49 51.8 71.0 9.05 .0743 0.000 202 7 100.0 10
5/09/26 4:10a 51.5 51.6 51.5 90 48.7 2.0 E 0.33 4.0 E 51.5 51.7 51.7 48.5 30.156 0.00 0.00 0 0.00 0 0.0 0.00 0.0 0.094 0.000 71.9 49 51.7 70.9 9.05 .0743 0.000 202 7 100.0 10
5/09/26 4:20a 50.9 51.5 50.9 90 48.1 2.0 NE 0.33 4.0 E 50.9 51.1 51.1 47.9 30.153 0.00 0.00 0 0.00 0 0.0 0.00 0.0 0.098 0.000 71.9 49 51.7 70.9 9.05 .0743 0.000 202 7 100.0 10
5/09/26 4:30a 50.6 51.0 50.5 90 47.8 1.0 NE 0.17 3.0 NE 50.6 50.8 50.8 47.6 30.149 0.00 0.00 0 0.00 0 0.0 0.00 0.0 0.100 0.000 71.8 49 51.6 70.7 9.05 .0743 0.000 201 7 100.0 10
5/09/26 4:40a 50.4 50.6 50.3 91 47.9 0.0 NE 0.00 1.0 NE 50.4 50.7 50.7 47.5 30.146 0.00 0.00 0 0.00 0 0.0 0.00 0.0 0.101 0.000 71.8 49 51.6 70.7 9.05 .0743 0.000 203 7 100.0 10
5/09/26 4:50a 50.5 50.5 50.3 91 48.0 0.0 NE 0.00 2.0 NE 50.5 50.8 50.8 47.6 30.147 0.00 0.00 0 0.00 0 0.0 0.00 0.0 0.101 0.000 71.8 49 51.6 70.7 9.05 .0743 0.000 204 7 100.0 10
5/09/26 5:00a 50.7 50.7 50.5 91 48.2 2.0 NE 0.33 4.0 NE 50.7 51.0 51.0 47.8 30.142 0.00 0.00 0 0.00 0 0.0 0.00 0.0 0.099 0.000 71.7 49 51.5 70.5 9.05 .0743 0.000 200 7 100.0 10
5/09/26 5:10a 50.9 51.0 50.7 91 48.4 3.0 ENE 0.50 5.0 ENE 50.7 51.2 51.0 47.8 30.139 0.00 0.00 0 0.00 0 0.0 0.00 0.0 0.098 0.000 71.7 49 51.5 70.5 9.05 .0743 0.000 204 7 100.0 10
5/09/26 5:20a 50.7 51.0 50.7 91 48.2 3.0 NE 0.50 6.0 N 50.5 51.0 50.8 47.6 30.136 0.00 0.00 0 0.00 0 0.0 0.00 0.0 0.099 0.000 71.7 49 51.5 70.5 9.05 .0743 0.000 200 7 100.0 10
5/09/26 5:30a 50.8 50.8 50.6 92 48.6 3.0 NE 0.50 7.0 ENE 50.6 51.1 50.9 47.7 30.127 0.00 0.00 0 0.00 0 0.0 0.00 0.0 0.099 0.000 71.6 49 51.4 70.4 9.05 .0743 0.000 202 7 100.0 10
5/09/26 5:40a 51.1 51.1 50.8 91 48.6 4.0 ENE 0.67 7.0 ENE 50.1 51.3 50.3 47.1 30.127 0.00 0.00 0 0.00 0 0.0 0.00 0.0 0.097 0.000 71.6 49 51.4 70.4 9.05 .0743 0.000 202 7 100.0 10
5/09/26 5:50a 51.2 51.2 51.1 91 48.7 3.0 ENE 0.50 8.0 NNE 51.0 51.4 51.2 48.1 30.124 0.00 0.00 2 0.03 5 0.0 0.00 0.0 0.096 0.000 71.6 49 51.4 70.4 9.05 .0743 0.000 205 7 100.0 10
5/09/26 6:00a 51.0 51.2 51.0 91 48.5 3.0 ENE 0.50 5.0 ENE 50.8 51.2 51.0 48.0 30.124 0.00 0.00 9 0.13 12 0.0 0.00 0.0 0.097 0.000 71.5 49 51.3 70.3 9.05 .0743 0.000 203 7 100.0 10
5/09/26 6:10a 51.2 51.3 51.0 91 48.7 4.0 ENE 0.67 9.0 ENE 50.2 51.4 50.4 47.6 30.121 0.00 0.00 19 0.27 25 0.0 0.00 0.0 0.096 0.000 71.5 49 51.3 70.3 9.05 .0743 0.000 202 7 100.0 10
5/09/26 6:20a 51.2 51.3 51.2 91 48.7 3.0 NE 0.50 6.0 NE 51.0 51.4 51.2 48.8 30.121 0.00 0.00 34 0.49 42 0.0 0.00 0.0 0.096 0.000 71.5 49 51.3 70.3 9.05 .0743 0.000 202 7 100.0 10
5/09/26 6:30a 50.7 51.2 50.6 91 48.2 3.0 NE 0.50 9.0 NE 50.5 51.0 50.8 48.7 30.121 0.00 0.00 49 0.70 54 0.0 0.00 0.0 0.099 0.000 71.5 49 51.3 70.3 9.05 .0743 0.000 203 7 100.0 10
5/09/26 6:40a 51.6 51.6 50.7 92 49.4 4.0 ENE 0.67 8.0 ENE 50.7 51.9 51.0 49.1 30.117 0.00 0.00 57 0.82 58 0.0 0.00 0.0 0.093 0.000 71.5 49 51.3 70.3 9.05 .0743 0.000 204 7 100.0 10
5/09/26 6:50a 52.3 52.3 51.6 92 50.0 5.0 ENE 0.83 10.0 NE 50.9 52.5 51.1 49.4 30.119 0.00 0.00 62 0.89 67 0.0 0.00 0.0 0.088 0.000 71.5 49 51.3 70.3 9.05 .0743 0.000 197 7 99.5 10
5/09/26 7:00a 52.7 52.7 52.3 92 50.4 5.0 ENE 0.83 10.0 ENE 51.4 52.9 51.6 50.2 30.120 0.00 0.00 79 1.13 90 0.0 0.00 0.0 0.085 0.000 71.5 49 51.3 70.3 9.05 .0743 0.001 203 7 100.0 10
5/09/26 7:10a 52.9 53.0 52.7 91 50.3 4.0 E 0.67 11.0 ENE 52.2 53.0 52.3 51.3 30.124 0.00 0.00 97 1.39 102 0.0 0.00 0.0 0.084 0.000 71.5 49 51.3 70.3 9.05 .0743 0.000 202 7 100.0 10
5/09/26 7:20a 53.2 53.2 52.9 91 50.6 4.0 E 0.67 8.0 ESE 52.5 53.3 52.6 51.8 30.117 0.00 0.00 107 1.53 113 0.0 0.00 0.0 0.082 0.000 71.5 49 51.3 70.3 9.05 .0743 0.000 203 7 100.0 10
5/09/26 7:30a 53.3 53.3 53.2 91 50.7 6.0 ENE 1.00 12.0 E 51.6 53.4 51.7 51.5 30.119 0.00 0.00 135 1.94 151 0.0 0.00 0.0 0.081 0.000 71.5 49 51.3 70.3 9.05 .0743 0.000 203 7 100.0 10
5/09/26 7:40a 53.8 53.8 53.3 91 51.2 4.0 ENE 0.67 10.0 E 53.3 53.9 53.4 58.6 30.126 0.00 0.00 179 2.57 197 0.0 0.00 0.0 0.078 0.000 71.6 49 51.4 70.4 9.05 .0743 0.000 202 7 100.0 10
5/09/26 7:50a 52.7 54.0 52.7 90 49.8 3.0 N 0.50 8.0 NNW 52.7 52.8 52.8 60.3 30.130 0.00 0.00 242 3.47 278 0.5 0.04 0.6 0.085 0.000 71.6 49 51.4 70.4 9.05 .0743 0.000 202 7 100.0 10
5/09/26 8:00a 52.4 52.6 52.3 91 49.8 4.0 NNE 0.67 10.0 NNE 51.6 52.6 51.8 59.6 30.122 0.00 0.00 259 3.71 283 0.6 0.04 0.6 0.087 0.000 71.6 49 51.4 70.4 9.05 .0742 0.003 202 7 100.0 10
5/09/26 8:10a 52.2 52.4 52.2 91 49.7 4.0 NE 0.67 10.0 NE 51.4 52.4 51.6 58.2 30.120 0.00 0.00 242 3.47 285 0.7 0.05 0.8 0.089 0.000 71.6 49 51.4 70.4 9.05 .0742 0.000 203 7 100.0 10
5/09/26 8:20a 52.0 52.3 52.0 91 49.5 4.0 NE 0.67 9.0 ENE 51.2 52.2 51.4 58.5 30.119 0.00 0.00 264 3.78 302 0.8 0.06 0.9 0.090 0.000 71.6 49 51.4 70.4 9.05 .0742 0.000 200 7 100.0 10
5/09/26 8:30a 52.5 52.5 52.0 91 49.9 4.0 NNW 0.67 9.0 NE 51.8 52.7 52.0 63.0 30.118 0.00 0.00 381 5.46 422 1.1 0.08 1.1 0.087 0.000 71.6 49 51.4 70.4 9.05 .0742 0.000 203 7 100.0 10
5/09/26 8:40a 54.3 54.3 52.5 92 52.0 4.0 NE 0.67 10.0 NE 53.8 54.4 53.9 63.5 30.121 0.00 0.00 361 5.18 455 1.1 0.08 1.2 0.074 0.000 71.7 49 51.5 70.5 9.05 .0742 0.000 204 7 100.0 10
5/09/26 8:50a 54.5 54.6 54.2 90 51.6 3.0 NNW 0.50 8.0 ENE 54.5 54.6 54.6 62.7 30.120 0.00 0.00 303 4.34 446 1.2 0.09 1.3 0.073 0.000 71.7 49 51.5 70.5 9.05 .0742 0.000 203 7 100.0 10
5/09/26 9:00a 55.6 55.6 54.4 91 53.0 3.0 NE 0.50 10.0 NE 55.6 55.7 55.7 64.7 30.110 0.00 0.00 356 5.10 517 1.4 0.10 1.5 0.065 0.000 71.7 49 51.5 70.5 9.05 .0742 0.006 204 7 100.0 10
5/09/26 9:10a 56.9 56.9 55.7 89 53.7 5.0 NE 0.83 11.0 NE 56.3 57.0 56.4 64.0 30.114 0.00 0.00 291 4.17 413 1.5 0.11 1.7 0.056 0.000 71.7 49 51.5 70.5 9.05 .0742 0.000 203 7 100.0 10
5/09/26 9:20a 57.2 57.2 56.8 88 53.7 7.0 NE 1.17 13.0 NE 55.8 57.2 55.8 66.2 30.116 0.00 0.00 477 6.84 522 1.9 0.14 2.1 0.054 0.000 71.8 49 51.6 70.7 9.05 .0742 0.000 203 7 100.0 10
5/09/26 9:30a 55.9 57.2 55.9 87 52.1 8.0 NNE 1.33 12.0 NE 53.6 55.9 53.6 62.8 30.112 0.00 0.00 438 6.28 534 2.0 0.14 2.1 0.063 0.000 71.8 49 51.6 70.7 9.05 .0742 0.000 201 7 100.0 10
5/09/26 9:40a 55.2 55.9 55.2 88 51.7 9.0 N 1.50 13.0 N 52.0 55.2 52.0 62.2 30.110 0.00 0.00 557 7.98 677 2.4 0.17 2.7 0.068 0.000 71.8 49 51.6 70.7 9.05 .0742 0.000 203 7 100.0 10
5/09/26 9:50a 55.5 55.6 55.2 89 52.3 9.0 NNE 1.50 13.0 NNE 52.4 55.6 52.5 62.1 30.106 0.00 0.00 551 7.90 679 2.6 0.19 2.7 0.066 0.000 71.8 49 51.6 70.7 9.05 .0742 0.000 204 7 100.0 10
5/09/26 10:00a 55.7 55.7 55.5 89 52.5 10.0 NNE 1.67 14.0 NNE 51.9 55.8 52.0 61.1 30.111 0.00 0.00 566 8.11 610 2.7 0.19 2.9 0.065 0.000 71.8 49 51.6 70.7 9.05 .0742 0.010 199 7 100.0 10
5/09/26 10:10a 56.3 56.4 55.7 89 53.1 8.0 N 1.33 13.0 NNE 54.1 56.4 54.2 65.4 30.110 0.00 0.00 652 9.35 680 3.1 0.22 3.2 0.060 0.000 71.9 49 51.7 70.9 9.05 .0742 0.000 202 7 100.0 10
5/09/26 10:20a 56.8 56.8 56.3 89 53.6 8.0 NNE 1.33 12.0 NNE 54.7 56.9 54.8 65.9 30.109 0.00 0.00 676 9.69 721 3.4 0.24 3.6 0.057 0.000 71.9 49 51.7 70.9 9.05 .0742 0.000 203 7 100.0 10
5/09/26 10:30a 57.3 57.3 56.8 89 54.1 8.0 NNE 1.33 12.0 NE 55.3 57.4 55.4 67.2 30.106 0.00 0.00 729 10.45 775 3.8 0.27 3.9 0.053 0.000 72.0 49 51.8 71.0 9.05 .0741 0.000 203 7 100.0 10
5/09/26 10:40a 57.9 57.9 57.4 88 54.4 8.0 NNE 1.33 13.0 NNE 56.0 57.9 56.0 66.2 30.107 0.00 0.00 676 9.69 775 3.8 0.27 4.1 0.049 0.000 71.8 50 52.2 70.8 9.25 .0742 0.000 203 7 100.0 10
5/09/26 10:50a 58.6 58.6 57.9 88 55.1 7.0 NNE 1.17 12.0 NNE 57.5 58.7 57.6 68.1 30.109 0.00 0.00 687 9.85 782 4.0 0.29 4.4 0.044 0.000 71.7 50 52.1 70.6 9.25 .0742 0.000 201 7 100.0 10
5/09/26 11:00a 59.4 59.4 58.6 87 55.5 7.0 NNE 1.17 11.0 NNE 58.5 59.5 58.6 70.8 30.111 0.00 0.00 804 11.53 826 4.6 0.33 4.7 0.039 0.000 71.7 50 52.1 70.6 9.25 .0742 0.015 205 7 100.0 10
5/09/26 11:10a 59.1 59.4 59.0 86 54.9 10.0 NNE 1.67 15.0 N 55.9 59.1 55.9 67.1 30.111 0.00 0.00 844 12.10 853 4.8 0.34 5.0 0.041 0.000 71.8 50 52.2 70.8 9.25 .0742 0.000 203 7 100.0 10
5/09/26 11:20a 59.5 59.5 59.0 87 55.6 9.0 NNE 1.50 15.0 NNE 57.1 59.6 57.2 68.1 30.111 0.00 0.00 821 11.77 863 5.0 0.36 5.1 0.038 0.000 71.9 50 52.2 70.9 9.25 .0741 0.000 203 7 100.0 10
5/09/26 11:30a 58.9 59.5 58.9 86 54.7 10.0 NNE 1.67 15.0 NNE 55.7 58.9 55.7 65.9 30.109 0.00 0.00 828 11.87 884 5.1 0.36 5.4 0.042 0.000 71.9 50 52.2 70.9 9.25 .0741 0.000 202 7 100.0 10
5/09/26 11:40a 58.8 58.9 58.6 86 54.6 11.0 NNE 1.83 16.0 NE 55.0 58.8 55.0 65.1 30.107 0.00 0.00 861 12.34 891 5.5 0.39 5.6 0.043 0.000 72.0 50 52.3 71.1 9.25 .0741 0.000 204 7 100.0 10
5/09/26 11:50a 59.3 59.3 58.8 86 55.1 10.0 NNE 1.67 17.0 N 56.2 59.4 56.3 66.9 30.102 0.00 0.00 882 12.64 902 5.7 0.41 5.7 0.040 0.000 72.1 50 52.4 71.2 9.25 .0741 0.000 200 7 100.0 10
5/09/26 12:00p 59.7 59.7 59.1 86 55.5 10.0 NNE 1.67 17.0 N 56.6 59.8 56.7 65.9 30.103 0.00 0.00 807 11.57 854 5.4 0.39 5.5 0.037 0.000 72.2 50 52.5 71.4 9.25 .0741 0.018 204 7 100.0 10
5/09/26 12:10p 59.8 59.9 59.4 86 55.6 10.0 NNE 1.67 18.0 NNE 56.8 59.9 56.9 66.5 30.096 0.00 0.00 842 12.07 912 5.7 0.41 5.8 0.036 0.000 72.2 50 52.5 71.4 9.25 .0741 0.000 204 7 100.0 10
5/09/26 12:20p 59.6 59.9 59.6 85 55.1 11.0 NNE 1.83 17.0 NNE 55.9 59.7 56.0 65.3 30.095 0.00 0.00 759 10.88 861 5.7 0.41 6.0 0.038 0.000 72.3 50 52.6 71.5 9.25 .0740 0.000 201 7 100.0 10
5/09/26 12:30p 59.1 59.6 59.1 86 54.9 12.0 NNE 2.00 19.0 NNE 54.7 59.1 54.7 63.0 30.093 0.00 0.00 819 11.74 923 5.9 0.42 6.3 0.041 0.000 72.4 50 52.7 71.7 9.25 .0740 0.000 200 7 100.0 10
5/09/26 12:40p 59.3 59.4 58.8 87 55.4 10.0 NNE 1.67 17.0 NNW 56.2 59.4 56.3 65.5 30.094 0.00 0.00 625 8.96 795 4.8 0.34 5.6 0.040 0.000 72.5 50 52.8 71.8 9.25 .0740 0.000 201 7 100.0 10
5/09/26 12:50p 58.9 59.4 58.8 87 55.0 10.0 NNE 1.67 16.0 N 55.7 59.0 55.8 64.2 30.096 0.00 0.00 548 7.86 965 4.7 0.34 6.9 0.042 0.000 72.6 50 52.9 71.9 9.25 .0740 0.000 204 7 100.0 10
5/09/26 1:00p 59.7 59.7 58.9 87 55.8 11.0 NNE 1.83 17.0 NNE 56.0 59.9 56.2 66.7 30.091 0.00 0.00 979 14.03 1035 6.4 0.46 6.9 0.037 0.000 72.7 50 53.0 72.1 9.25 .0740 0.016 201 7 100.0 10
5/09/26 1:10p 59.9 59.9 59.6 87 56.0 11.0 NNE 1.83 19.0 NNW 56.2 60.1 56.4 66.3 30.087 0.00 0.00 938 13.45 956 6.5 0.46 6.7 0.035 0.000 72.7 50 53.0 72.1 9.25 .0740 0.000 203 7 100.0 10
5/09/26 1:20p 60.1 60.2 59.8 86 55.9 11.0 NNE 1.83 20.0 N 56.4 60.2 56.5 65.5 30.090 0.00 0.00 872 12.50 925 6.0 0.43 6.5 0.034 0.000 72.7 50 53.0 72.1 9.25 .0740 0.000 202 7 100.0 10
5/09/26 1:30p 61.0 61.0 60.1 86 56.8 11.0 NNE 1.83 21.0 NNE 57.5 61.2 57.7 68.3 30.091 0.00 0.00 986 14.13 1086 6.7 0.48 7.1 0.028 0.000 72.8 50 53.1 72.2 9.25 .0739 0.000 203 7 100.0 10
5/09/26 1:40p 61.1 61.2 61.0 85 56.6 11.0 NE 1.83 21.0 NNE 57.6 61.3 57.8 67.5 30.088 0.00 0.00 912 13.07 970 6.5 0.46 6.8 0.027 0.000 72.8 50 53.1 72.2 9.25 .0739 0.000 203 7 100.0 10
5/09/26 1:50p 60.7 61.2 60.7 85 56.2 12.0 NNE 2.00 21.0 N 56.6 60.9 56.8 66.0 30.080 0.00 0.00 895 12.83 905 6.2 0.44 6.4 0.030 0.000 72.9 50 53.2 72.4 9.25 .0739 0.000 203 7 100.0 10
5/09/26 2:00p 60.2 60.8 60.0 86 56.0 14.0 N 2.33 24.0 ENE 55.1 60.4 55.3 63.8 30.078 0.00 0.00 880 12.61 970 6.2 0.44 6.6 0.033 0.000 73.0 50 53.3 72.5 9.25 .0739 0.020 202 7 100.0 10
5/09/26 2:10p 60.3 60.3 60.0 86 56.1 14.0 NNE 2.33 22.0 N 55.2 60.5 55.4 64.7 30.074 0.00 0.00 934 13.39 963 6.4 0.46 6.6 0.033 0.000 73.1 50 53.4 72.6 9.25 .0738 0.000 204 7 100.0 10
5/09/26 2:20p 59.9 60.3 59.8 87 56.0 14.0 NNE 2.33 22.0 NNE 54.8 60.1 55.0 63.2 30.071 0.00 0.00 780 11.18 900 5.6 0.40 6.3 0.035 0.000 73.1 50 53.4 72.6 9.25 .0738 0.000 203 7 100.0 10
5/09/26 2:30p 59.8 59.9 59.7 87 55.9 14.0 NNE 2.33 21.0 N 54.7 60.0 54.9 63.7 30.070 0.00 0.00 876 12.56 940 5.8 0.41 6.1 0.036 0.000 73.2 50 53.4 72.7 9.25 .0738 0.000 203 7 100.0 10
5/09/26 2:40p 59.7 59.8 59.7 87 55.8 12.0 NNE 2.00 21.0 N 55.4 59.9 55.6 64.7 30.070 0.00 0.00 839 12.03 868 5.6 0.40 5.8 0.037 0.000 73.4 50 53.6 73.0 9.25 .0738 0.000 201 7 100.0 10
5/09/26 2:50p 60.7 60.7 59.8 87 56.8 12.0 NNE 2.00 19.0 NNE 56.6 61.0 56.9 66.1 30.062 0.00 0.00 829 11.88 877 5.5 0.39 5.7 0.030 0.000 73.4 50 53.6 73.0 9.25 .0738 0.000 204 7 100.0 10
5/09/26 3:00p 61.0 61.1 60.7 86 56.8 11.0 NNE 1.83 19.0 NNE 57.5 61.2 57.7 67.4 30.058 0.00 0.00 821 11.77 849 5.2 0.37 5.4 0.028 0.000 73.5 50 53.7 73.1 9.25 .0737 0.018 201 7 100.0 10
5/09/26 3:10p 61.0 61.0 60.8 86 56.8 11.0 NNE 1.83 17.0 NNE 57.5 61.2 57.7 66.3 30.056 0.00 0.00 733 10.51 800 4.6 0.33 5.0 0.028 0.000 73.6 50 53.8 73.2 9.25 .0737 0.000 203 7 100.0 10
5/09/26 3:20p 60.8 61.1 60.7 86 56.6 11.0 NNE 1.83 16.0 NNE 57.3 61.0 57.5 66.4 30.053 0.00 0.00 737 10.57 828 4.7 0.34 4.9 0.029 0.000 73.6 50 53.8 73.2 9.25 .0737 0.000 201 7 100.0 10
5/09/26 3:30p 61.5 61.5 60.7 86 57.3 9.0 NNE 1.50 17.0 NNE 59.5 61.8 59.8 69.9 30.052 0.00 0.00 747 10.71 773 4.4 0.31 4.7 0.024 0.000 73.7 50 53.9 73.3 9.25 .0737 0.000 204 7 100.0 10
5/09/26 3:40p 60.7 61.5 60.7 85 56.2 11.0 NNE 1.83 18.0 NNE 57.1 60.9 57.3 65.9 30.054 0.00 0.00 676 9.69 707 4.1 0.29 4.2 0.030 0.000 73.8 50 54.0 73.5 9.25 .0737 0.000 203 7 100.0 10
5/09/26 3:50p 60.7 60.9 60.6 86 56.5 10.0 NNE 1.67 15.0 NE 57.8 60.9 58.0 67.2 30.053 0.00 0.00 653 9.36 710 3.9 0.28 4.1 0.030 0.000 73.8 50 54.0 73.5 9.25 .0737 0.000 203 7 100.0 10
5/09/26 4:00p 61.1 61.2 60.6 85 56.6 9.0 NNE 1.50 17.0 N 59.0 61.3 59.2 68.9 30.051 0.00 0.00 571 8.19 661 3.6 0.26 3.8 0.027 0.000 73.9 50 54.1 73.6 9.25 .0737 0.015 204 7 100.0 10
5/09/26 4:10p 61.1 61.4 61.0 85 56.6 9.0 NNE 1.50 16.0 NNE 59.0 61.3 59.2 69.4 30.053 0.00 0.00 664 9.52 696 3.5 0.25 3.7 0.027 0.000 73.9 50 54.1 73.6 9.25 .0737 0.000 202 7 100.0 10
5/09/26 4:20p 61.5 61.5 61.1 85 56.9 9.0 NE 1.50 17.0 N 59.5 61.8 59.8 69.5 30.049 0.00 0.00 614 8.80 680 3.3 0.24 3.5 0.024 0.000 74.0 50 54.2 73.7 9.25 .0736 0.000 203 7 100.0 10
5/09/26 4:30p 61.1 61.6 61.1 84 56.2 11.0 NNE 1.83 18.0 NNE 57.6 61.3 57.8 66.5 30.050 0.00 0.00 572 8.20 599 2.9 0.21 3.1 0.027 0.000 74.1 50 54.3 73.8 9.25 .0736 0.000 202 7 100.0 10
5/09/26 4:40p 60.9 61.2 60.9 85 56.4 11.0 NNE 1.83 17.0 NNE 57.4 61.1 57.6 66.1 30.045 0.00 0.00 541 7.76 570 2.8 0.20 3.0 0.028 0.000 74.2 50 54.4 74.0 9.25 .0736 0.000 205 7 100.0 10
5/09/26 4:50p 61.1 61.2 60.8 84 56.2 11.0 NNE 1.83 18.0 NNE 57.6 61.3 57.8 66.3 30.042 0.00 0.00 511 7.33 547 2.5 0.18 2.6 0.027 0.000 74.3 51 55.0 74.2 9.36 .0735 0.000 200 7 100.0 10
5/09/26 5:00p 61.1 61.1 61.0 85 56.6 11.0 NNE 1.83 18.0 NNE 57.6 61.3 57.8 65.3 30.039 0.00 0.00 370 5.30 403 2.2 0.16 2.4 0.027 0.000 74.4 53 56.2 74.5 9.67 .0735 0.013 203 7 100.0 10
5/09/26 5:10p 60.5 61.1 60.5 85 56.0 12.0 N 2.00 18.0 N 56.4 60.7 56.6 64.6 30.039 0.00 0.00 430 6.16 476 1.9 0.14 2.0 0.031 0.000 74.6 54 56.9 74.9 9.86 .0734 0.000 203 7 100.0 10
5/09/26 5:20p 60.3 60.5 60.3 86 56.1 11.0 NNE 1.83 18.0 N 56.7 60.5 56.9 65.1 30.047 0.00 0.00 440 6.31 508 1.8 0.13 2.0 0.033 0.000 74.7 54 56.9 75.0 9.86 .0734 0.000 202 7 100.0 10
5/09/26 5:30p 60.7 60.7 60.3 87 56.8 9.0 NNE 1.50 15.0 NNE 58.5 61.0 58.8 67.2 30.045 0.00 0.00 400 5.73 536 1.7 0.12 1.8 0.030 0.000 74.8 53 56.5 75.1 9.66 .0734 0.000 204 7 100.0 10
5/09/26 5:40p 60.8 61.0 60.6 86 56.6 8.0 NNE 1.33 13.0 N 59.5 61.0 59.7 70.7 30.046 0.00 0.00 456 6.54 510 1.5 0.11 1.7 0.029 0.000 74.8 53 56.5 75.1 9.66 .0734 0.000 202 7 100.0 10
5/09/26 5:50p 60.4 60.8 60.3 87 56.5 8.0 NNE 1.33 13.0 NNE 59.0 60.6 59.2 69.3 30.052 0.00 0.00 406 5.82 443 1.3 0.09 1.4 0.032 0.000 74.8 52 56.0 75.0 9.55 .0735 0.000 204 7 100.0 10
5/09/26 6:00p 60.4 60.6 60.4 87 56.5 8.0 NNE 1.33 15.0 N 59.0 60.6 59.2 66.8 30.051 0.00 0.00 309 4.43 350 1.1 0.08 1.2 0.032 0.000 74.8 52 56.0 75.0 9.55 .0735 0.009 205 7 100.0 10
5/09/26 6:10p 60.0 60.3 59.9 87 56.1 9.0 NNE 1.50 15.0 N 57.7 60.2 57.9 65.3 30.053 0.00 0.00 293 4.20 336 0.9 0.06 1.0 0.035 0.000 74.8 52 56.0 75.0 9.55 .0735 0.000 201 7 100.0 10
5/09/26 6:20p 60.0 60.0 59.7 88 56.4 8.0 NNE 1.33 14.0 NNW 58.5 60.2 58.7 65.9 30.051 0.00 0.00 268 3.84 292 0.8 0.06 0.8 0.035 0.000 74.9 52 56.1 75.1 9.55 .0734 0.000 204 7 100.0 10
5/09/26 6:30p 59.9 59.9 59.7 88 56.3 8.0 NNE 1.33 16.0 NNE 58.4 60.1 58.6 65.7 30.053 0.00 0.00 255 3.66 272 0.7 0.05 0.7 0.035 0.000 74.9 52 56.1 75.1 9.55 .0734 0.000 203 7 100.0 10
5/09/26 6:40p 59.9 60.0 59.8 88 56.3 7.0 NNE 1.17 13.0 NNE 59.1 60.1 59.3 66.8 30.046 0.00 0.00 246 3.53 264 0.6 0.04 0.6 0.035 0.000 74.9 52 56.1 75.1 9.55 .0734 0.000 200 7 100.0 10
5/09/26 6:50p 59.1 59.9 59.1 87 55.2 9.0 NNE 1.50 14.0 NNE 56.6 59.2 56.7 60.9 30.042 0.00 0.00 170 2.44 202 0.2 0.01 0.5 0.041 0.000 74.9 51 55.6 75.0 9.35 .0734 0.000 203 7 100.0 10
5/09/26 7:00p 58.9 59.1 58.7 88 55.4 9.0 NNE 1.50 16.0 N 56.4 59.0 56.5 61.2 30.041 0.00 0.00 176 2.52 193 0.0 0.00 0.0 0.042 0.000 74.9 51 55.6 75.0 9.35 .0734 0.006 202 7 100.0 10
5/09/26 7:10p 59.1 59.1 58.9 88 55.5 8.0 NNE 1.33 13.0 NE 57.4 59.2 57.5 58.3 30.040 0.00 0.00 167 2.39 181 0.0 0.00 0.0 0.041 0.000 74.9 51 55.6 75.0 9.35 .0734 0.000 201 7 100.0 10
5/09/26 7:20p 58.9 59.1 58.9 88 55.4 8.0 NNE 1.33 14.0 NNE 57.2 59.0 57.3 56.9 30.040 0.00 0.00 112 1.61 141 0.0 0.00 0.0 0.042 0.000 74.9 51 55.6 75.0 9.35 .0734 0.000 203 7 100.0 10
5/09/26 7:30p 58.3 58.8 58.3 89 55.1 7.0 NE 1.17 13.0 NNE 57.2 58.4 57.3 55.9 30.041 0.00 0.00 65 0.93 76 0.0 0.00 0.0 0.047 0.000 74.9 51 55.6 75.0 9.35 .0734 0.000 198 7 100.0 10
5/09/26 7:40p 58.1 58.4 58.1 89 54.9 7.0 NNE 1.17 13.0 NE 56.9 58.2 57.0 55.4 30.041 0.00 0.00 59 0.85 65 0.0 0.00 0.0 0.048 0.000 74.8 51 55.5 74.9 9.35 .0735 0.000 201 7 100.0 10
5/09/26 7:50p 57.7 58.1 57.7 89 54.5 8.0 NNE 1.33 14.0 N 55.7 57.8 55.8 54.0 30.041 0.00 0.00 47 0.67 54 0.0 0.00 0.0 0.051 0.000 74.8 52 56.0 75.0 9.55 .0734 0.000 203 7 100.0 10
5/09/26 8:00p 57.3 57.7 57.3 90 54.4 8.0 NNE 1.33 14.0 NNE 55.3 57.4 55.4 53.2 30.044 0.00 0.00 28 0.40 35 0.0 0.00 0.0 0.053 0.000 74.7 51 55.4 74.8 9.36 .0735 0.002 202 7 100.0 10
5/09/26 8:10p 57.1 57.3 57.1 90 54.2 7.0 NNE 1.17 14.0 NNE 55.7 57.2 55.8 53.2 30.047 0.00 0.00 13 0.19 21 0.0 0.00 0.0 0.055 0.000 74.7 51 55.4 74.8 9.36 .0735 0.000 201 7 100.0 10
5/09/26 8:20p 56.9 57.2 56.9 90 54.0 7.0 NNE 1.17 13.0 ENE 55.5 57.0 55.6 52.8 30.050 0.00 0.00 6 0.09 7 0.0 0.00 0.0 0.056 0.000 74.6 51 55.3 74.6 9.36 .0735 0.000 204 7 100.0 10
5/09/26 8:30p 56.7 56.9 56.7 91 54.1 7.0 NNE 1.17 12.0 NE 55.2 56.8 55.3 52.4 30.056 0.00 0.00 0 0.00 0 0.0 0.00 0.0 0.058 0.000 74.6 51 55.3 74.6 9.36 .0735 0.000 205 7 100.0 10
5/09/26 8:40p 56.5 56.7 56.4 91 53.9 6.0 NNE 1.00 12.0 N 55.4 56.6 55.5 52.6 30.062 0.00 0.00 0 0.00 0 0.0 0.00 0.0 0.059 0.000 74.5 51 55.2 74.5 9.36 .0736 0.000 202 7 100.0 10
5/09/26 8:50p 56.2 56.5 56.2 91 53.6 7.0 NNE 1.17 12.0 NE 54.6 56.3 54.7 51.8 30.066 0.00 0.00 0 0.00 0 0.0 0.00 0.0 0.061 0.000 74.5 51 55.2 74.5 9.36 .0736 0.000 203 7 100.0 10
5/09/26 9:00p 55.9 56.2 55.9 91 53.3 6.0 NNE 1.00 12.0 NE 54.7 56.0 54.8 51.9 30.069 0.00 0.00 0 0.00 0 0.0 0.00 0.0 0.063 0.000 74.4 51 55.1 74.4 9.36 .0736 0.001 204 7 100.0 10
5/09/26 9:10p 55.8 55.9 55.7 91 53.2 7.0 NE 1.17 15.0 NNE 54.2 55.9 54.3 51.4 30.068 0.00 0.00 0 0.00 0 0.0 0.00 0.0 0.064 0.000 74.4 51 55.1 74.4 9.36 .0736 0.000 203 7 100.0 10
5/09/26 9:20p 55.6 55.8 55.6 91 53.0 7.0 NNE 1.17 15.0 NNE 53.9 55.7 54.0 51.1 30.072 0.00 0.00 0 0.00 0 0.0 0.00 0.0 0.065 0.000 74.4 51 55.1 74.4 9.36 .0736 0.000 201 7 100.0 10
5/09/26 9:30p 55.5 55.6 55.5 92 53.2 7.0 NE 1.17 12.0 NNE 53.8 55.6 53.9 51.0 30.079 0.00 0.00 0 0.00 0 0.0 0.00 0.0 0.066 0.000 74.3 51 55.0 74.2 9.36 .0736 0.000 202 7 100.0 10
5/09/26 9:40p 55.4 55.5 55.3 92 53.1 7.0 NNE 1.17 14.0 N 53.7 55.5 53.8 50.9 30.082 0.00 0.00 0 0.00 0 0.0 0.00 0.0 0.067 0.000 74.3 51 55.0 74.2 9.36 .0736 0.000 204 7 100.0 10
5/09/26 9:50p 55.4 55.4 55.3 92 53.1 6.0 NE 1.00 12.0 NE 54.1 55.5 54.2 51.3 30.085 0.00 0.00 0 0.00 0 0.0 0.00 0.0 0.067 0.000 74.2 51 54.9 74.1 9.37 .0737 0.000 204 7 100.0 10
5/09/26 10:00p 55.3 55.4 55.2 91 52.7 6.0 NE 1.00 11.0 NNE 54.0 55.4 54.1 51.1 30.090 0.00 0.00 0 0.00 0 0.0 0.00 0.0 0.067 0.000 74.2 51 54.9 74.1 9.37 .0737 0.001 202 7 100.0 10
5/09/26 10:10p 55.1 55.3 55.1 92 52.8 6.0 NNE 1.00 11.0 NNE 53.7 55.2 53.8 50.8 30.091 0.00 0.00 0 0.00 0 0.0 0.00 0.0 0.069 0.000 74.1 51 54.8 73.9 9.37 .0737 0.000 203 7 100.0 10
5/09/26 10:20p 55.2 55.3 55.1 92 52.9 6.0 NNE 1.00 11.0 NNE 53.8 55.3 53.9 50.9 30.092 0.00 0.00 0 0.00 0 0.0 0.00 0.0 0.068 0.000 74.1 51 54.8 73.9 9.37 .0737 0.000 203 7 100.0 10
5/09/26 10:30p 55.1 55.3 55.1 92 52.8 5.0 NNE 0.83 10.0 NNE 54.2 55.2 54.3 51.3 30.094 0.00 0.00 0 0.00 0 0.0 0.00 0.0 0.069 0.000 74.0 51 54.7 73.8 9.37 .0737 0.000 203 7 100.0 10
5/09/26 10:40p 55.0 55.1 55.0 92 52.7 5.0 NE 0.83 8.0 NNE 54.1 55.1 54.2 51.2 30.094 0.00 0.00 0 0.00 0 0.0 0.00 0.0 0.069 0.000 74.0 51 54.7 73.8 9.37 .0737 0.000 202 7 100.0 10
5/09/26 10:50p 54.9 55.0 54.8 92 52.6 6.0 NNE 1.00 13.0 NNE 53.5 55.0 53.6 50.6 30.094 0.00 0.00 0 0.00 0 0.0 0.00 0.0 0.070 0.000 74.0 51 54.7 73.8 9.37 .0737 0.000 202 7 100.0 10
5/09/26 11:00p 54.8 55.0 54.8 92 52.5 5.0 NNE 0.83 11.0 NNE 53.9 54.9 54.0 51.0 30.094 0.00 0.00 0 0.00 0 0.0 0.00 0.0 0.071 0.000 73.9 51 54.6 73.7 9.37 .0737 0.000 201 7 100.0 10
5/09/26 11:10p 54.8 54.9 54.7 92 52.5 4.0 NE 0.67 9.0 NE 54.4 54.9 54.5 51.5 30.095 0.00 0.00 0 0.00 0 0.0 0.00 0.0 0.071 0.000 73.9 51 54.6 73.7 9.37 .0737 0.000 204 7 100.0 10
5/09/26 11:20p 54.7 54.8 54.6 92 52.4 6.0 NNE 1.00 12.0 NNE 53.2 54.8 53.3 50.3 30.096 0.00 0.00 0 0.00 0 0.0 0.00 0.0 0.072 0.000 73.9 51 54.6 73.7 9.37 .0737 0.000 202 7 100.0 10
5/09/26 11:30p 54.7 54.8 54.6 92 52.4 5.0 NE 0.83 10.0 N 53.7 54.8 53.8 50.8 30.093 0.00 0.00 0 0.00 0 0.0 0.00 0.0 0.072 0.000 73.8 51 54.5 73.6 9.37 .0738 0.000 201 7 100.0 10
5/09/26 11:40p 54.7 54.8 54.6 92 52.4 5.0 NNE 0.83 12.0 N 53.7 54.8 53.8 50.8 30.090 0.00 0.00 0 0.00 0 0.0 0.00 0.0 0.072 0.000 73.8 51 54.5 73.6 9.37 .0737 0.000 203 7 100.0 10
5/09/26 11:50p 54.7 54.7 54.6 92 52.4 5.0 NNE 0.83 9.0 NNE 53.7 54.8 53.8 50.8 30.088 0.00 0.00 0 0.00 0 0.0 0.00 0.0 0.072 0.000 73.7 51 54.4 73.4 9.38 .0738 0.000 200 7 100.0 10
5/10/26 12:00a 54.4 54.7 54.4 92 52.1 6.0 NNE 1.00 12.0 N 52.9 54.5 53.0 50.0 30.088 0.00 0.00 0 0.00 0 0.0 0.00 0.0 0.074 0.000 73.7 51 54.4 73.4 9.38 .0738 0.000 203 7 100.0 10
5/10/26 12:10a 54.4 54.5 54.4 92 52.1 6.0 NNE 1.00 10.0 NNE 52.9 54.5 53.0 50.0 30.087 0.00 0.00 0 0.00 0 0.0 0.00 0.0 0.074 0.000 73.6 51 54.4 73.3 9.38 .0738 0.000 202 7 100.0 10
5/10/26 12:20a 54.4 54.5 54.3 92 52.1 6.0 NNE 1.00 11.0 NE 52.9 54.5 53.0 50.0 30.087 0.00 0.00 0 0.00 0 0.0 0.00 0.0 0.074 0.000 73.6 51 54.4 73.3 9.38 .0738 0.000 204 7 100.0 10
5/10/26 12:30a 54.2 54.4 54.2 92 51.9 5.0 NNE 0.83 11.0 NE 53.1 54.3 53.2 50.2 30.097 0.00 0.00 0 0.00 0 0.0 0.00 0.0 0.075 0.000 73.6 51 54.4 73.3 9.38 .0738 0.000 202 7 100.0 10
5/10/26 12:40a 54.1 54.2 54.1 92 51.8 9.0 NNE 1.50 14.0 NNE 50.7 54.2 50.8 48.1 30.096 0.00 0.00 0 0.00 0 0.0 0.00 0.0 0.076 0.000 73.5 51 54.3 73.2 9.38 .0738 0.000 203 7 100.0 10
5/10/26 12:50a 54.2 54.2 54.1 92 51.9 8.0 NNE 1.33 14.0 NNE 51.5 54.3 51.6 48.8 30.089 0.00 0.00 0 0.00 0 0.0 0.00 0.0 0.075 0.000 73.5 51 54.3 73.2 9.38 .0738 0.000 204 7 100.0 10
5/10/26 1:00a 54.2 54.2 54.1 92 51.9 6.0 NNE 1.00 11.0 NNE 52.6 54.3 52.7 49.7 30.094 0.00 0.00 0 0.00 0 0.0 0.00 0.0 0.075 0.000 73.5 51 54.3 73.2 9.38 .0738 0.001 200 7 100.0 10
5/10/26 1:10a 54.2 54.3 54.1 92 51.9 7.0 NNE 1.17 12.0 N 52.2 54.3 52.3 49.3 30.088 0.00 0.00 0 0.00 0 0.0 0.00 0.0 0.075 0.000 73.4 51 54.2 73.1 9.38 .0738 0.000 203 7 100.0 10
5/10/26 1:20a 54.3 54.3 54.2 92 52.0 6.0 NE 1.00 11.0 N 52.8 54.4 52.9 49.9 30.087 0.00 0.00 0 0.00 0 0.0 0.00 0.0 0.074 0.000 73.4 51 54.2 73.1 9.38 .0738 0.000 203 7 100.0 10
5/10/26 1:30a 54.2 54.3 54.1 92 51.9 6.0 NNE 1.00 11.0 NNE 52.6 54.3 52.7 49.7 30.093 0.00 0.00 0 0.00 0 0.0 0.00 0.0 0.075 0.000 73.4 51 54.2 73.1 9.38 .0738 0.000 201 7 100.0 10
5/10/26 1:40a 54.0 54.2 54.0 92 51.7 6.0 NNE 1.00 11.0 N 52.4 54.1 52.5 49.5 30.096 0.00 0.00 0 0.00 0 0.0 0.00 0.0 0.076 0.000 73.3 51 54.1 73.0 9.38 .0738 0.000 203 7 100.0 10
5/10/26 1:50a 54.1 54.2 54.0 92 51.8 6.0 NNE 1.00 11.0 NNE 52.5 54.2 52.6 49.6 30.094 0.00 0.00 0 0.00 0 0.0 0.00 0.0 0.076 0.000 73.3 51 54.1 73.0 9.38 .0738 0.000 201 7 100.0 10
5/10/26 2:00a 54.1 54.2 54.1 92 51.8 6.0 NNE 1.00 11.0 N 52.5 54.2 52.6 49.6 30.098 0.00 0.00 0 0.00 0 0.0 0.00 0.0 0.076 0.000 73.3 51 54.1 73.0 9.38 .0739 0.000 203 7 100.0 10
5/10/26 2:10a 54.1 54.1 54.0 92 51.8 5.0 NNE 0.83 9.0 NNE 53.0 54.2 53.1 50.1 30.101 0.00 0.00 0 0.00 0 0.0 0.00 0.0 0.076 0.000 73.2 51 54.0 72.8 9.39 .0739 0.000 202 7 100.0 10
5/10/26 2:20a 54.0 54.2 54.0 92 51.7 4.0 NE 0.67 7.0 NE 53.5 54.1 53.6 50.6 30.104 0.00 0.00 0 0.00 0 0.0 0.00 0.0 0.076 0.000 73.2 51 54.0 72.8 9.39 .0739 0.000 203 7 100.0 10
5/10/26 2:30a 53.8 54.0 53.8 93 51.8 4.0 NNE 0.67 10.0 NE 53.3 54.0 53.5 50.5 30.096 0.00 0.00 0 0.00 0 0.0 0.00 0.0 0.078 0.000 73.1 51 53.9 72.7 9.39 .0739 0.000 201 7 100.0 10
5/10/26 2:40a 53.8 53.9 53.8 93 51.8 4.0 NE 0.67 8.0 NNE 53.3 54.0 53.5 50.5 30.093 0.00 0.00 0 0.00 0 0.0 0.00 0.0 0.078 0.000 73.1 51 53.9 72.7 9.39 .0739 0.000 203 7 100.0 10
5/10/26 2:50a 53.9 53.9 53.8 93 51.9 4.0 NE 0.67 8.0 NNE 53.4 54.1 53.6 50.6 30.096 0.00 0.00 0 0.00 0 0.0 0.00 0.0 0.077 0.000 73.1 51 53.9 72.7 9.39 .0739 0.000 204 7 100.0 10
5/10/26 3:00a 54.0 54.0 53.8 93 52.0 3.0 NE 0.50 5.0 NE 54.0 54.2 54.2 51.2 30.103 0.00 0.00 0 0.00 0 0.0 0.00 0.0 0.076 0.000 73.0 51 53.8 72.6 9.39 .0739 0.000 203 7 100.0 10
5/10/26 3:10a 53.9 54.0 53.9 93 51.9 3.0 ENE 0.50 7.0 N 53.9 54.1 54.1 51.1 30.106 0.00 0.00 0 0.00 0 0.0 0.00 0.0 0.077 0.000 73.0 51 53.8 72.6 9.39 .0739 0.000 201 7 100.0 10
5/10/26 3:20a 53.8 53.9 53.8 93 51.8 3.0 NE 0.50 8.0 NNW 53.8 54.0 54.0 51.0 30.103 0.00 0.00 0 0.00 0 0.0 0.00 0.0 0.078 0.000 73.0 51 53.8 72.6 9.39 .0739 0.000 202 7 100.0 10
5/10/26 3:30a 53.7 53.9 53.7 93 51.7 3.0 NE 0.50 6.0 ENE 53.7 53.9 53.9 50.9 30.105 0.00 0.00 0 0.00 0 0.0 0.00 0.0 0.078 0.000 72.9 51 53.7 72.5 9.39 .0739 0.000 204 7 100.0 10
5/10/26 3:40a 53.8 53.8 53.7 93 51.8 3.0 NE 0.50 11.0 NE 53.8 54.0 54.0 51.0 30.104 0.00 0.00 0 0.00 0 0.0 0.00 0.0 0.078 0.000 72.9 51 53.7 72.5 9.39 .0739 0.000 203 7 100.0 10
5/10/26 3:50a 53.7 53.8 53.7 93 51.7 2.0 NE 0.33 5.0 ENE 53.7 53.9 53.9 50.9 30.106 0.00 0.00 0 0.00 0 0.0 0.00 0.0 0.078 0.000 72.9 51 53.7 72.5 9.39 .0739 0.000 201 7 100.0 10
5/10/26 4:00a 53.7 53.8 53.6 93 51.7 3.0 ENE 0.50 5.0 NE 53.7 53.9 53.9 50.9 30.105 0.00 0.00 0 0.00 0 0.0 0.00 0.0 0.078 0.000 72.8 51 53.6 72.3 9.39 .0740 0.000 203 7 100.0 10
5/10/26 4:10a 53.7 53.7 53.6 93 51.7 3.0 NE 0.50 7.0 NNE 53.7 53.9 53.9 50.9 30.109 0.00 0.00 0 0.00 0 0.0 0.00 0.0 0.078 0.000 72.8 51 53.6 72.3 9.39 .0740 0.000 203 7 100.0 10
5/10/26 4:20a 53.6 53.7 53.6 93 51.6 3.0 NE 0.50 9.0 ENE 53.6 53.8 53.8 50.8 30.098 0.00 0.00 0 0.00 0 0.0 0.00 0.0 0.079 0.000 72.8 51 53.6 72.3 9.39 .0739 0.000 201 7 100.0 10
5/10/26 4:30a 53.6 53.6 53.5 93 51.6 3.0 ENE 0.50 9.0 NE 53.6 53.8 53.8 50.8 30.109 0.00 0.00 0 0.00 0 0.0 0.00 0.0 0.079 0.000 72.7 51 53.5 72.2 9.40 .0740 0.000 203 7 100.0 10
5/10/26 4:40a 53.5 53.6 53.4 93 51.5 3.0 NE 0.50 6.0 NE 53.5 53.7 53.7 50.7 30.093 0.00 0.00 0 0.00 0 0.0 0.00 0.0 0.080 0.000 72.7 51 53.5 72.2 9.40 .0739 0.000 205 7 100.0 10
5/10/26 4:50a 53.5 53.5 53.4 93 51.5 3.0 NE 0.50 10.0 NE 53.5 53.7 53.7 50.7 30.092 0.00 0.00 0 0.00 0 0.0 0.00 0.0 0.080 0.000 72.7 51 53.5 72.2 9.40 .0739 0.000 202 7 100.0 10
5/10/26 5:00a 53.5 53.5 53.4 92 51.2 3.0 NE 0.50 9.0 NE 53.5 53.7 53.7 50.7 30.101 0.00 0.00 0 0.00 0 0.0 0.00 0.0 0.080 0.000 72.7 51 53.5 72.2 9.40 .0740 0.000 203 7 100.0 10
5/10/26 5:10a 53.6 53.7 53.5 92 51.3 2.0 NE 0.33 5.0 NE 53.6 53.8 53.8 50.8 30.099 0.00 0.00 0 0.00 0 0.0 0.00 0.0 0.079 0.000 72.7 51 53.5 72.2 9.40 .0740 0.000 202 7 100.0 10
5/10/26 5:20a 53.6 53.7 53.5 92 51.3 2.0 ENE 0.33 5.0 ENE 53.6 53.8 53.8 50.8 30.096 0.00 0.00 0 0.00 0 0.0 0.00 0.0 0.079 0.000 72.7 51 53.5 72.2 9.40 .0740 0.000 203 7 100.0 10
5/10/26 5:30a 53.6 53.7 53.5 92 51.3 2.0 NE 0.33 4.0 NE 53.6 53.8 53.8 50.8 30.099 0.00 0.00 0 0.00 0 0.0 0.00 0.0 0.079 0.000 72.7 51 53.5 72.2 9.40 .0740 0.000 203 7 100.0 10
5/10/26 5:40a 53.6 53.7 53.6 92 51.3 2.0 NE 0.33 5.0 NNE 53.6 53.8 53.8 50.8 30.094 0.00 0.00 0 0.00 0 0.0 0.00 0.0 0.079 0.000 72.7 51 53.5 72.2 9.40 .0739 0.000 204 7 100.0 10
5/10/26 5:50a 53.5 53.7 53.5 92 51.2 2.0 NE 0.33 5.0 NE 53.5 53.7 53.7 50.7 30.090 0.00 0.00 0 0.00 0 0.0 0.00 0.0 0.080 0.000 72.7 51 53.5 72.2 9.40 .0739 0.000 201 7 100.0 10
5/10/26 6:00a 53.3 53.6 53.3 92 51.0 2.0 NE 0.33 4.0 NE 53.3 53.5 53.5 50.5 30.097 0.00 0.00 0 0.00 0 0.0 0.00 0.0 0.081 0.000 72.7 51 53.5 72.2 9.40 .0740 0.000 203 7 100.0 10
5/10/26 6:10a 53.3 53.4 53.3 92 51.0 2.0 NNE 0.33 3.0 NNE 53.3 53.5 53.5 50.7 30.098 0.00 0.00 8 0.11 14 0.0 0.00 0.0 0.081 0.000 72.7 51 53.5 72.2 9.40 .0740 0.000 202 7 100.0 10